This is the latest recevied weather packets stored in our database for station/object OM4MO-10. If no packets are shown the sender has not sent any weather packets the latest 10 day(s).
| Time | Temp. | Humidity | Pressure | Rain* | Wind** | Luminosity | Snow |
|---|---|---|---|---|---|---|---|
| 1777987894 | 25.56° C | 21% | 1034 hPa | - | - | - | - |
| 1777986694 | 26.11° C | 26% | 1030.1 hPa | - | - | - | - |
| 1777985494 | 25.56° C | 24% | 1031.9 hPa | - | - | - | - |
| 1777984294 | 25.56° C | 23% | 1033 hPa | - | - | - | - |
| 1777983094 | 23.89° C | 26% | 1030.2 hPa | - | - | - | - |
| 1777981894 | 24.44° C | 28% | 1030.2 hPa | - | - | - | - |
| 1777980694 | 25° C | 24% | 1032.8 hPa | - | - | - | - |
| 1777979493 | 24.44° C | 25% | 1031.7 hPa | - | - | - | - |
| 1777978293 | 23.89° C | 28% | 1030.1 hPa | - | - | - | - |
| 1777977093 | 22.22° C | 29% | 1029.1 hPa | - | - | - | - |
| 1777975893 | 23.89° C | 28% | 1030.4 hPa | - | - | - | - |
| 1777974693 | 23.33° C | 34% | 1025.8 hPa | - | - | - | - |
| 1777973493 | 22.78° C | 36% | 1023.9 hPa | - | - | - | - |
| 1777972293 | 22.78° C | 39% | 1023.3 hPa | - | - | - | - |
| 1777971093 | 22.22° C | 40% | 1023.1 hPa | - | - | - | - |
| 1777969892 | 21.11° C | 39% | 1023.8 hPa | - | - | - | - |
| 1777968692 | 20.56° C | 42% | 1022.1 hPa | - | - | - | - |
| 1777967492 | 20° C | 45% | 1021 hPa | - | - | - | - |
| 1777966292 | 19.44° C | 44% | 1021.7 hPa | - | - | - | - |
| 1777965092 | 18.89° C | 45% | 1022 hPa | - | - | - | - |
| 1777963892 | 17.78° C | 49% | 1019.8 hPa | - | - | - | - |
| 1777962692 | 17.22° C | 60% | 1015.8 hPa | - | - | - | - |
| 1777961492 | 16.67° C | 58% | 1018.1 hPa | - | - | - | - |
| 1777960292 | 15.56° C | 64% | 1017 hPa | - | - | - | - |
| 1777959091 | 13.89° C | 74% | 1015.1 hPa | - | - | - | - |
* Rain since midnight (hover to see other rain measurements)
** Current wind speed in m/s (hover to see current wind gust speed)